Grande Portogallo — IBZW — position and weather

sailwx.info

Track history (hours):
 
Tides and Currents Weather Stations Pressure Air Temp Water Temp Dewpoint Dewpoint Depression Visibility Wind Speed Wind Dir Waves Ship Positions

Grande Portogallo

Last reported at 2015-Feb-26 07:33 UTC. Time now 2015-Feb-28 05:22 UTC.
Position N 40°45' E 029°29'.

Length 176 m; draft 7.7 m.

Type: Cargo ship. MMSI: 247065500.

Date/timePositionNaut miles runAvg speedWind from/ knotsBaromVisibWave heightAir tempDewpointWater temp
2015-Feb-26 07:33N 40°45' E 029°29'1212.5
2015-Feb-26 06:34N 40°44' E 029°13'1515.0
2015-Feb-26 05:33N 40°44' E 028°53'30714.5
2015-Feb-25 08:20N 37°13' E 024°05'40715.7
2015-Feb-24 06:25N 38°10' E 015°35'13717.4
2015-Feb-23 22:33N 40°21' E 014°44'266 5.9
2015-Feb-22 01:33N 43°18' E 010°17'1413.8
2015-Feb-22 00:33N 43°31' E 010°14'5 4.7
2015-Feb-21 23:30N 43°35' E 010°19'0 0.0
2015-Feb-21 22:33N 43°35' E 010°19'0 0.0
2015-Feb-21 21:33N 43°35' E 010°19'0 0.0
2015-Feb-21 20:33N 43°35' E 010°19'0 0.0
2015-Feb-21 19:33N 43°35' E 010°19'0 0.0
2015-Feb-21 18:33N 43°35' E 010°19'0 0.0
2015-Feb-21 17:33N 43°35' E 010°19'0 0.0
2015-Feb-21 16:33N 43°35' E 010°19'0 0.0
2015-Feb-21 15:33N 43°35' E 010°19'0 0.0
2015-Feb-21 14:33N 43°35' E 010°19'0 0.0
2015-Feb-21 13:33N 43°35' E 010°19'1 0.5
2015-Feb-21 12:33N 43°34' E 010°19'8 7.9
2015-Feb-21 11:33N 43°30' E 010°10'1616.4
2015-Feb-21 10:33N 43°30' E 009°47'1717.3
2015-Feb-21 09:33N 43°26' E 009°24'1717.4
2015-Feb-21 08:33N 43°21' E 009°01'7017.5
2015-Feb-21 04:33N 43°04' E 007°28'1717.3
2015-Feb-21 03:33N 42°59' E 007°05'1717.1
2015-Feb-21 02:33N 42°56' E 006°42'1716.4
2015-Feb-21 01:33N 42°52' E 006°20'1915.4
2015-Feb-21 00:19N 42°56' E 005°55'1316.7
2015-Feb-20 23:33N 43°00' E 005°39'1716.7
2015-Feb-20 22:33N 43°07' E 005°17'1515.3
2015-Feb-20 21:33N 43°15' E 005°00'1010.5
2015-Feb-20 20:33N 43°24' E 004°52'1 1.0
2015-Feb-20 19:33N 43°24' E 004°51'0 0.0
2015-Feb-20 18:33N 43°24' E 004°51'0 0.0
2015-Feb-20 17:33N 43°24' E 004°51'0 0.0
2015-Feb-20 16:33N 43°24' E 004°51'0 0.0
2015-Feb-20 15:33N 43°24' E 004°51'0 0.0
2015-Feb-20 14:33N 43°24' E 004°51'0 0.0
2015-Feb-20 13:33N 43°24' E 004°51'0 0.0
2015-Feb-20 12:33N 43°24' E 004°51'0 0.0
2015-Feb-20 11:30N 43°24' E 004°51'0 0.0
2015-Feb-20 10:33N 43°24' E 004°51'0 0.0
2015-Feb-20 09:33N 43°24' E 004°51'0 0.0
2015-Feb-20 08:33N 43°24' E 004°51'0 0.0
2015-Feb-20 07:33N 43°24' E 004°51'0 0.0
2015-Feb-20 06:27N 43°24' E 004°51'0 0.0
2015-Feb-20 05:33N 43°24' E 004°51'0 0.0
2015-Feb-20 04:33N 43°24' E 004°51'5 5.1
2015-Feb-20 03:33N 43°23' E 004°57'1313.4
2015-Feb-20 02:33N 43°10' E 005°01'10517.5
2015-Feb-19 20:33N 41°51' E 003°27'1717.4
2015-Feb-19 19:33N 41°40' E 003°09'1817.9
2015-Feb-19 18:34N 41°28' E 002°50'2118.2
2015-Feb-19 17:23N 41°15' E 002°29'1617.6
2015-Feb-19 16:29N 41°04' E 002°13'1617.3
2015-Feb-19 15:33N 40°54' E 001°56'1717.5
2015-Feb-19 14:33N 40°43' E 001°39'1817.7
2015-Feb-19 13:33N 40°31' E 001°21'8617.1
2015-Feb-19 08:30N 39°34' W 000°03'1415.0
2015-Feb-19 07:33N 39°26' W 000°18'0 0.5
2015-Feb-19 06:33N 39°27' W 000°18'0 0.0
2015-Feb-19 05:33N 39°27' W 000°18'0 0.0
2015-Feb-19 04:33N 39°27' W 000°18'0 0.0
2015-Feb-19 03:33N 39°27' W 000°18'0 0.0
2015-Feb-19 02:33N 39°27' W 000°18'0 0.0
2015-Feb-19 01:33N 39°27' W 000°18'2 2.4
2015-Feb-19 00:33N 39°25' W 000°16'9411.7
2015-Feb-18 16:32N 37°51' W 000°16'1414.1
2015-Feb-18 15:33N 37°40' W 000°26'24514.3
2015-Feb-17 22:25N 36°02' W 005°07'1315.5
2015-Feb-17 21:33N 35°59' W 005°23'21313.3
2015-Feb-17 05:30N 37°30' W 009°23'1616.8
2015-Feb-17 04:33N 37°45' W 009°17'1717.0
2015-Feb-17 03:33N 38°01' W 009°10'1717.3
2015-Feb-17 02:34N 38°17' W 009°03'1514.6
2015-Feb-17 01:33N 38°31' W 008°54'2 1.9
2015-Feb-17 00:33N 38°31' W 008°52'0 0.0
2015-Feb-16 23:33N 38°31' W 008°52'0 0.0
2015-Feb-16 22:33N 38°31' W 008°52'0 0.0
2015-Feb-16 21:33N 38°31' W 008°52'0 0.0
2015-Feb-16 20:33N 38°31' W 008°52'0 0.0
2015-Feb-16 19:30N 38°31' W 008°52'0 0.0
2015-Feb-16 18:33N 38°31' W 008°52'0 0.0
2015-Feb-16 17:33N 38°31' W 008°52'0 0.0
2015-Feb-16 16:33N 38°31' W 008°52'0 0.0
2015-Feb-16 15:33N 38°31' W 008°52'0 0.2
2015-Feb-16 14:33N 38°31' W 008°52'7 7.1
2015-Feb-16 13:33N 38°26' W 008°59'5 4.9
2015-Feb-16 12:33N 38°23' W 009°04'1414.0
2015-Feb-16 11:33N 38°23' W 009°22'1514.7
2015-Feb-16 10:33N 38°28' W 009°40'1414.3
2015-Feb-16 09:33N 38°33' W 009°57'1413.9
2015-Feb-16 08:33N 38°45' W 010°05'  
Track history (hours):
 
Tides and Currents Weather Stations Pressure Air Temp Water Temp Dewpoint Dewpoint Depression Visibility Wind Speed Wind Dir Waves Ship Positions

Grande Portogallo

Last reported at 2015-Feb-26 07:33 UTC. Time now 2015-Feb-28 05:22 UTC.
Position N 40°45' E 029°29'.

Length 176 m; draft 7.7 m.

Type: Cargo ship. MMSI: 247065500.

Date/timePositionNaut miles runAvg speedWind from/ knotsBaromVisibWave heightAir tempDewpointWater temp
2015-Feb-26 07:33N 40°45' E 029°29'1212.5
2015-Feb-26 06:34N 40°44' E 029°13'1515.0
2015-Feb-26 05:33N 40°44' E 028°53'30714.5
2015-Feb-25 08:20N 37°13' E 024°05'40715.7
2015-Feb-24 06:25N 38°10' E 015°35'13717.4
2015-Feb-23 22:33N 40°21' E 014°44'266 5.9
2015-Feb-22 01:33N 43°18' E 010°17'1413.8
2015-Feb-22 00:33N 43°31' E 010°14'5 4.7
2015-Feb-21 23:30N 43°35' E 010°19'0 0.0
2015-Feb-21 22:33N 43°35' E 010°19'0 0.0
2015-Feb-21 21:33N 43°35' E 010°19'0 0.0
2015-Feb-21 20:33N 43°35' E 010°19'0 0.0
2015-Feb-21 19:33N 43°35' E 010°19'0 0.0
2015-Feb-21 18:33N 43°35' E 010°19'0 0.0
2015-Feb-21 17:33N 43°35' E 010°19'0 0.0
2015-Feb-21 16:33N 43°35' E 010°19'0 0.0
2015-Feb-21 15:33N 43°35' E 010°19'0 0.0
2015-Feb-21 14:33N 43°35' E 010°19'0 0.0
2015-Feb-21 13:33N 43°35' E 010°19'1 0.5
2015-Feb-21 12:33N 43°34' E 010°19'8 7.9
2015-Feb-21 11:33N 43°30' E 010°10'1616.4
2015-Feb-21 10:33N 43°30' E 009°47'1717.3
2015-Feb-21 09:33N 43°26' E 009°24'1717.4
2015-Feb-21 08:33N 43°21' E 009°01'7017.5
2015-Feb-21 04:33N 43°04' E 007°28'1717.3
2015-Feb-21 03:33N 42°59' E 007°05'1717.1
2015-Feb-21 02:33N 42°56' E 006°42'1716.4
2015-Feb-21 01:33N 42°52' E 006°20'1915.4
2015-Feb-21 00:19N 42°56' E 005°55'1316.7
2015-Feb-20 23:33N 43°00' E 005°39'1716.7
2015-Feb-20 22:33N 43°07' E 005°17'1515.3
2015-Feb-20 21:33N 43°15' E 005°00'1010.5
2015-Feb-20 20:33N 43°24' E 004°52'1 1.0
2015-Feb-20 19:33N 43°24' E 004°51'0 0.0
2015-Feb-20 18:33N 43°24' E 004°51'0 0.0
2015-Feb-20 17:33N 43°24' E 004°51'0 0.0
2015-Feb-20 16:33N 43°24' E 004°51'0 0.0
2015-Feb-20 15:33N 43°24' E 004°51'0 0.0
2015-Feb-20 14:33N 43°24' E 004°51'0 0.0
2015-Feb-20 13:33N 43°24' E 004°51'0 0.0
2015-Feb-20 12:33N 43°24' E 004°51'0 0.0
2015-Feb-20 11:30N 43°24' E 004°51'0 0.0
2015-Feb-20 10:33N 43°24' E 004°51'0 0.0
2015-Feb-20 09:33N 43°24' E 004°51'0 0.0
2015-Feb-20 08:33N 43°24' E 004°51'0 0.0
2015-Feb-20 07:33N 43°24' E 004°51'0 0.0
2015-Feb-20 06:27N 43°24' E 004°51'0 0.0
2015-Feb-20 05:33N 43°24' E 004°51'0 0.0
2015-Feb-20 04:33N 43°24' E 004°51'5 5.1
2015-Feb-20 03:33N 43°23' E 004°57'1313.4
2015-Feb-20 02:33N 43°10' E 005°01'10517.5
2015-Feb-19 20:33N 41°51' E 003°27'1717.4
2015-Feb-19 19:33N 41°40' E 003°09'1817.9
2015-Feb-19 18:34N 41°28' E 002°50'2118.2
2015-Feb-19 17:23N 41°15' E 002°29'1617.6
2015-Feb-19 16:29N 41°04' E 002°13'1617.3
2015-Feb-19 15:33N 40°54' E 001°56'1717.5
2015-Feb-19 14:33N 40°43' E 001°39'1817.7
2015-Feb-19 13:33N 40°31' E 001°21'8617.1
2015-Feb-19 08:30N 39°34' W 000°03'1415.0
2015-Feb-19 07:33N 39°26' W 000°18'0 0.5
2015-Feb-19 06:33N 39°27' W 000°18'0 0.0
2015-Feb-19 05:33N 39°27' W 000°18'0 0.0
2015-Feb-19 04:33N 39°27' W 000°18'0 0.0
2015-Feb-19 03:33N 39°27' W 000°18'0 0.0
2015-Feb-19 02:33N 39°27' W 000°18'0 0.0
2015-Feb-19 01:33N 39°27' W 000°18'2 2.4
2015-Feb-19 00:33N 39°25' W 000°16'9411.7
2015-Feb-18 16:32N 37°51' W 000°16'1414.1
2015-Feb-18 15:33N 37°40' W 000°26'24514.3
2015-Feb-17 22:25N 36°02' W 005°07'1315.5
2015-Feb-17 21:33N 35°59' W 005°23'21313.3
2015-Feb-17 05:30N 37°30' W 009°23'1616.8
2015-Feb-17 04:33N 37°45' W 009°17'1717.0
2015-Feb-17 03:33N 38°01' W 009°10'1717.3
2015-Feb-17 02:34N 38°17' W 009°03'1514.6
2015-Feb-17 01:33N 38°31' W 008°54'2 1.9
2015-Feb-17 00:33N 38°31' W 008°52'0 0.0
2015-Feb-16 23:33N 38°31' W 008°52'0 0.0
2015-Feb-16 22:33N 38°31' W 008°52'0 0.0
2015-Feb-16 21:33N 38°31' W 008°52'0 0.0
2015-Feb-16 20:33N 38°31' W 008°52'0 0.0
2015-Feb-16 19:30N 38°31' W 008°52'0 0.0
2015-Feb-16 18:33N 38°31' W 008°52'0 0.0
2015-Feb-16 17:33N 38°31' W 008°52'0 0.0
2015-Feb-16 16:33N 38°31' W 008°52'0 0.0
2015-Feb-16 15:33N 38°31' W 008°52'0 0.2
2015-Feb-16 14:33N 38°31' W 008°52'7 7.1
2015-Feb-16 13:33N 38°26' W 008°59'5 4.9
2015-Feb-16 12:33N 38°23' W 009°04'1414.0
2015-Feb-16 11:33N 38°23' W 009°22'1514.7
2015-Feb-16 10:33N 38°28' W 009°40'1414.3
2015-Feb-16 09:33N 38°33' W 009°57'1413.9
2015-Feb-16 08:33N 38°45' W 010°05'  

Dump ship's entire track history